sensor_id;sensor_type;location;lat;lon;timestamp;pressure;altitude;pressure_sealevel;temperature;humidity
15007;BME280;7599;50.748;13.142;2023-04-02T00:02:26;94706.34;;;11.99;68.36
15007;BME280;7599;50.748;13.142;2023-04-02T00:05:47;94710.81;;;11.98;68.39
15007;BME280;7599;50.748;13.142;2023-04-02T00:08:55;94718.72;;;11.98;68.30
15007;BME280;7599;50.748;13.142;2023-04-02T00:12:16;94716.88;;;11.99;68.24
15007;BME280;7599;50.748;13.142;2023-04-02T00:15:19;94719.75;;;11.97;68.47
15007;BME280;7599;50.748;13.142;2023-04-02T00:18:22;94727.41;;;11.99;68.25
15007;BME280;7599;50.748;13.142;2023-04-02T00:21:28;94725.81;;;11.98;68.20
15007;BME280;7599;50.748;13.142;2023-04-02T00:24:32;94736.38;;;11.98;68.26
15007;BME280;7599;50.748;13.142;2023-04-02T00:27:35;94743.22;;;11.99;68.69
15007;BME280;7599;50.748;13.142;2023-04-02T00:30:45;94738.22;;;11.97;68.20
15007;BME280;7599;50.748;13.142;2023-04-02T00:33:48;94742.97;;;11.95;68.07
15007;BME280;7599;50.748;13.142;2023-04-02T00:36:52;94744.81;;;11.95;68.73
15007;BME280;7599;50.748;13.142;2023-04-02T00:39:58;94738.50;;;11.96;68.27
15007;BME280;7599;50.748;13.142;2023-04-02T00:43:04;94753.22;;;11.97;68.50
15007;BME280;7599;50.748;13.142;2023-04-02T00:46:11;94755.88;;;11.97;68.40
15007;BME280;7599;50.748;13.142;2023-04-02T00:49:20;94766.41;;;11.97;68.42
15007;BME280;7599;50.748;13.142;2023-04-02T00:52:26;94771.69;;;11.97;68.28
15007;BME280;7599;50.748;13.142;2023-04-02T00:55:34;94764.84;;;11.96;68.21
15007;BME280;7599;50.748;13.142;2023-04-02T00:58:37;94771.69;;;11.97;68.38
15007;BME280;7599;50.748;13.142;2023-04-02T01:01:42;94775.41;;;11.96;68.23
15007;BME280;7599;50.748;13.142;2023-04-02T01:04:51;94777.75;;;11.97;68.42
15007;BME280;7599;50.748;13.142;2023-04-02T01:08:03;94783.81;;;11.98;68.41
15007;BME280;7599;50.748;13.142;2023-04-02T01:11:19;94782.22;;;11.97;68.31
15007;BME280;7599;50.748;13.142;2023-04-02T01:14:35;94790.41;;;11.95;68.36
15007;BME280;7599;50.748;13.142;2023-04-02T01:17:53;94792.78;;;11.97;68.00
15007;BME280;7599;50.748;13.142;2023-04-02T01:21:12;94793.06;;;11.95;67.96
15007;BME280;7599;50.748;13.142;2023-04-02T01:24:29;94793.84;;;11.96;68.26
15007;BME280;7599;50.748;13.142;2023-04-02T01:27:38;94799.13;;;11.96;68.23
15007;BME280;7599;50.748;13.142;2023-04-02T01:30:44;94800.97;;;11.95;68.30
15007;BME280;7599;50.748;13.142;2023-04-02T01:33:46;94805.44;;;11.95;68.38
15007;BME280;7599;50.748;13.142;2023-04-02T01:37:02;94811.50;;;11.95;68.15
15007;BME280;7599;50.748;13.142;2023-04-02T01:40:17;94826.53;;;11.95;68.32
15007;BME280;7599;50.748;13.142;2023-04-02T01:43:28;94831.00;;;11.94;68.21
15007;BME280;7599;50.748;13.142;2023-04-02T01:46:37;94833.63;;;11.94;68.43
15007;BME280;7599;50.748;13.142;2023-04-02T01:49:42;94837.31;;;11.93;68.25
15007;BME280;7599;50.748;13.142;2023-04-02T01:52:46;94843.38;;;11.94;68.23
15007;BME280;7599;50.748;13.142;2023-04-02T01:55:52;94846.03;;;11.94;68.10
15007;BME280;7599;50.748;13.142;2023-04-02T01:58:56;94850.50;;;11.93;68.05
15007;BME280;7599;50.748;13.142;2023-04-02T02:02:02;94843.63;;;11.92;68.37
15007;BME280;7599;50.748;13.142;2023-04-02T02:05:11;94852.34;;;11.93;68.02
15007;BME280;7599;50.748;13.142;2023-04-02T02:08:24;94855.75;;;11.93;68.08
15007;BME280;7599;50.748;13.142;2023-04-02T02:11:31;94866.31;;;11.93;68.22
15007;BME280;7599;50.748;13.142;2023-04-02T02:14:36;94876.06;;;11.93;68.09
15007;BME280;7599;50.748;13.142;2023-04-02T02:17:40;94887.41;;;11.93;68.33
15007;BME280;7599;50.748;13.142;2023-04-02T02:20:43;94883.16;;;11.92;68.42
15007;BME280;7599;50.748;13.142;2023-04-02T02:23:46;94885.56;;;11.94;68.17
15007;BME280;7599;50.748;13.142;2023-04-02T02:27:00;94886.59;;;11.93;68.22
15007;BME280;7599;50.748;13.142;2023-04-02T02:30:11;94895.06;;;11.95;67.99
15007;BME280;7599;50.748;13.142;2023-04-02T02:33:20;94901.38;;;11.94;68.03
15007;BME280;7599;50.748;13.142;2023-04-02T02:36:28;94899.53;;;11.94;67.93
15007;BME280;7599;50.748;13.142;2023-04-02T02:39:36;94905.06;;;11.93;68.27
15007;BME280;7599;50.748;13.142;2023-04-02T02:42:43;94920.63;;;11.94;68.46
15007;BME280;7599;50.748;13.142;2023-04-02T02:45:50;94925.88;;;11.94;68.51
15007;BME280;7599;50.748;13.142;2023-04-02T02:48:56;94925.88;;;11.94;68.49
15007;BME280;7599;50.748;13.142;2023-04-02T02:52:05;94930.34;;;11.94;68.32
15007;BME280;7599;50.748;13.142;2023-04-02T02:55:15;94937.22;;;11.95;68.20
15007;BME280;7599;50.748;13.142;2023-04-02T02:58:22;94945.91;;;11.95;68.36
15007;BME280;7599;50.748;13.142;2023-04-02T03:01:28;94948.81;;;11.94;68.39
15007;BME280;7599;50.748;13.142;2023-04-02T03:04:32;94953.03;;;11.95;68.34
15007;BME280;7599;50.748;13.142;2023-04-02T03:07:36;94955.66;;;11.95;68.02
15007;BME280;7599;50.748;13.142;2023-04-02T03:10:42;94967.81;;;11.96;68.10
15007;BME280;7599;50.748;13.142;2023-04-02T03:13:49;94966.22;;;11.95;68.28
15007;BME280;7599;50.748;13.142;2023-04-02T03:16:59;94969.66;;;11.95;68.32
15007;BME280;7599;50.748;13.142;2023-04-02T03:20:09;94983.88;;;11.94;68.48
15007;BME280;7599;50.748;13.142;2023-04-02T03:23:14;94992.03;;;11.93;68.24
15007;BME280;7599;50.748;13.142;2023-04-02T03:26:24;94996.25;;;11.94;68.11
15007;BME280;7599;50.748;13.142;2023-04-02T03:29:32;94999.69;;;11.94;67.92
15007;BME280;7599;50.748;13.142;2023-04-02T03:32:38;95003.38;;;11.93;68.36
15007;BME280;7599;50.748;13.142;2023-04-02T03:35:45;95011.28;;;11.93;68.22
15007;BME280;7599;50.748;13.142;2023-04-02T03:38:54;95010.22;;;11.94;68.01
15007;BME280;7599;50.748;13.142;2023-04-02T03:42:04;95026.03;;;11.94;67.97
15007;BME280;7599;50.748;13.142;2023-04-02T03:45:12;95029.47;;;11.95;68.25
15007;BME280;7599;50.748;13.142;2023-04-02T03:48:19;95034.75;;;11.95;68.19
15007;BME280;7599;50.748;13.142;2023-04-02T03:51:31;95035.53;;;11.95;67.89
15007;BME280;7599;50.748;13.142;2023-04-02T03:54:35;95040.00;;;11.95;68.21
15007;BME280;7599;50.748;13.142;2023-04-02T03:57:42;95051.34;;;11.95;68.29
15007;BME280;7599;50.748;13.142;2023-04-02T04:00:51;95057.41;;;11.96;67.91
15007;BME280;7599;50.748;13.142;2023-04-02T04:04:02;95066.88;;;11.97;67.94
15007;BME280;7599;50.748;13.142;2023-04-02T04:07:13;95074.28;;;11.95;68.23
15007;BME280;7599;50.748;13.142;2023-04-02T04:10:20;95078.22;;;11.97;67.95
15007;BME280;7599;50.748;13.142;2023-04-02T04:13:30;95091.41;;;11.97;68.17
15007;BME280;7599;50.748;13.142;2023-04-02T04:16:40;95091.69;;;11.96;68.26
15007;BME280;7599;50.748;13.142;2023-04-02T04:19:47;95094.03;;;11.97;68.07
15007;BME280;7599;50.748;13.142;2023-04-02T04:23:07;95109.84;;;11.97;68.24
15007;BME280;7599;50.748;13.142;2023-04-02T04:26:18;95119.59;;;11.97;68.21
15007;BME280;7599;50.748;13.142;2023-04-02T04:29:32;95122.25;;;11.97;68.11
15007;BME280;7599;50.748;13.142;2023-04-02T04:32:43;95124.88;;;11.97;68.19
15007;BME280;7599;50.748;13.142;2023-04-02T04:35:52;95129.09;;;11.98;68.19
15007;BME280;7599;50.748;13.142;2023-04-02T04:39:03;95143.88;;;11.99;68.17
15007;BME280;7599;50.748;13.142;2023-04-02T04:42:14;95150.19;;;11.98;67.93
15007;BME280;7599;50.748;13.142;2023-04-02T04:45:29;95149.16;;;11.99;67.69
15007;BME280;7599;50.748;13.142;2023-04-02T04:48:37;95168.66;;;11.98;68.17
15007;BME280;7599;50.748;13.142;2023-04-02T04:51:47;95173.91;;;11.98;67.93
15007;BME280;7599;50.748;13.142;2023-04-02T04:54:53;95177.59;;;11.97;68.03
15007;BME280;7599;50.748;13.142;2023-04-02T04:57:59;95179.19;;;11.98;67.66
15007;BME280;7599;50.748;13.142;2023-04-02T05:01:09;95186.31;;;11.97;67.96
15007;BME280;7599;50.748;13.142;2023-04-02T05:04:16;95203.72;;;11.98;67.72
15007;BME280;7599;50.748;13.142;2023-04-02T05:07:27;95210.81;;;11.98;67.83
15007;BME280;7599;50.748;13.142;2023-04-02T05:10:36;95209.78;;;11.99;67.57
15007;BME280;7599;50.748;13.142;2023-04-02T05:13:47;95223.75;;;11.99;67.89
15007;BME280;7599;50.748;13.142;2023-04-02T05:16:56;95221.38;;;11.98;67.85
15007;BME280;7599;50.748;13.142;2023-04-02T05:20:04;95230.88;;;11.99;67.65
15007;BME280;7599;50.748;13.142;2023-04-02T05:23:14;95234.56;;;11.98;67.95
15007;BME280;7599;50.748;13.142;2023-04-02T05:26:24;95236.38;;;11.97;67.73
15007;BME280;7599;50.748;13.142;2023-04-02T05:29:33;95242.47;;;11.98;67.92
15007;BME280;7599;50.748;13.142;2023-04-02T05:32:42;95242.47;;;11.98;67.50
15007;BME280;7599;50.748;13.142;2023-04-02T05:35:52;95252.19;;;11.97;67.64
15007;BME280;7599;50.748;13.142;2023-04-02T05:38:57;95248.78;;;11.97;67.55
15007;BME280;7599;50.748;13.142;2023-04-02T05:42:04;95251.69;;;11.95;67.92
15007;BME280;7599;50.748;13.142;2023-04-02T05:45:18;95268.03;;;11.97;67.73
15007;BME280;7599;50.748;13.142;2023-04-02T05:48:27;95275.41;;;11.95;67.97
15007;BME280;7599;50.748;13.142;2023-04-02T05:51:37;95279.06;;;11.94;67.91
15007;BME280;7599;50.748;13.142;2023-04-02T05:54:45;95283.31;;;11.95;67.59
15007;BME280;7599;50.748;13.142;2023-04-02T05:57:55;95278.03;;;11.95;67.63
15007;BME280;7599;50.748;13.142;2023-04-02T06:01:28;95300.97;;;11.95;67.75
15007;BME280;7599;50.748;13.142;2023-04-02T06:04:38;95307.03;;;11.95;67.48
15007;BME280;7599;50.748;13.142;2023-04-02T06:07:45;95307.84;;;11.96;67.69
15007;BME280;7599;50.748;13.142;2023-04-02T06:10:54;95313.34;;;11.94;67.72
15007;BME280;7599;50.748;13.142;2023-04-02T06:13:58;95321.78;;;11.96;67.84
15007;BME280;7599;50.748;13.142;2023-04-02T06:17:01;95323.88;;;11.94;67.54
15007;BME280;7599;50.748;13.142;2023-04-02T06:20:08;95329.97;;;11.95;67.70
15007;BME280;7599;50.748;13.142;2023-04-02T06:23:17;95346.56;;;11.95;67.56
15007;BME280;7599;50.748;13.142;2023-04-02T06:26:24;95347.38;;;11.96;67.66
15007;BME280;7599;50.748;13.142;2023-04-02T06:29:32;95352.66;;;11.96;67.54
15007;BME280;7599;50.748;13.142;2023-04-02T06:32:39;95356.84;;;11.97;67.52
15007;BME280;7599;50.748;13.142;2023-04-02T06:35:42;95356.31;;;11.95;67.27
15007;BME280;7599;50.748;13.142;2023-04-02T06:38:48;95369.50;;;11.95;67.39
15007;BME280;7599;50.748;13.142;2023-04-02T06:41:55;95367.38;;;11.97;67.35
15007;BME280;7599;50.748;13.142;2023-04-02T06:45:03;95376.38;;;11.96;67.41
15007;BME280;7599;50.748;13.142;2023-04-02T06:48:13;95383.47;;;11.95;67.62
15007;BME280;7599;50.748;13.142;2023-04-02T06:51:17;95391.38;;;11.95;67.50
15007;BME280;7599;50.748;13.142;2023-04-02T06:54:22;95399.28;;;11.95;67.73
15007;BME280;7599;50.748;13.142;2023-04-02T06:57:25;95403.78;;;11.95;67.11
15007;BME280;7599;50.748;13.142;2023-04-02T07:00:33;95411.69;;;11.95;67.26
15007;BME280;7599;50.748;13.142;2023-04-02T07:03:38;95417.75;;;11.95;67.63
15007;BME280;7599;50.748;13.142;2023-04-02T07:06:42;95418.53;;;11.96;67.39
15007;BME280;7599;50.748;13.142;2023-04-02T07:09:44;95429.09;;;11.96;67.37
15007;BME280;7599;50.748;13.142;2023-04-02T07:12:47;95431.72;;;11.96;67.37
15007;BME280;7599;50.748;13.142;2023-04-02T07:15:52;95441.19;;;11.97;67.16
15007;BME280;7599;50.748;13.142;2023-04-02T07:18:56;95443.31;;;11.95;67.43
15007;BME280;7599;50.748;13.142;2023-04-02T07:22:00;95451.75;;;11.97;67.23
15007;BME280;7599;50.748;13.142;2023-04-02T07:25:02;95452.81;;;11.96;67.10
15007;BME280;7599;50.748;13.142;2023-04-02T07:28:05;95457.28;;;11.95;67.22
15007;BME280;7599;50.748;13.142;2023-04-02T07:31:14;95469.41;;;11.96;67.08
15007;BME280;7599;50.748;13.142;2023-04-02T07:34:17;95480.22;;;11.95;67.04
15007;BME280;7599;50.748;13.142;2023-04-02T07:37:20;95485.47;;;11.95;67.21
15007;BME280;7599;50.748;13.142;2023-04-02T07:40:22;95496.03;;;11.95;67.16
15007;BME280;7599;50.748;13.142;2023-04-02T07:43:25;95498.66;;;11.95;67.37
15007;BME280;7599;50.748;13.142;2023-04-02T07:46:29;95499.69;;;11.94;67.06
15007;BME280;7599;50.748;13.142;2023-04-02T07:49:31;95500.50;;;11.94;67.19
15007;BME280;7599;50.748;13.142;2023-04-02T07:52:38;95513.69;;;11.94;67.04
15007;BME280;7599;50.748;13.142;2023-04-02T07:55:40;95527.09;;;11.93;67.22
15007;BME280;7599;50.748;13.142;2023-04-02T07:58:44;95516.56;;;11.93;67.01
15007;BME280;7599;50.748;13.142;2023-04-02T08:01:48;95527.91;;;11.93;67.18
15007;BME280;7599;50.748;13.142;2023-04-02T08:04:50;95536.59;;;11.94;66.92
15007;BME280;7599;50.748;13.142;2023-04-02T08:07:54;95539.00;;;11.95;67.24
15007;BME280;7599;50.748;13.142;2023-04-02T08:10:57;95535.56;;;11.95;67.02
15007;BME280;7599;50.748;13.142;2023-04-02T08:14:00;95555.84;;;11.94;67.17
15007;BME280;7599;50.748;13.142;2023-04-02T08:17:04;95546.13;;;11.95;67.13
15007;BME280;7599;50.748;13.142;2023-04-02T08:20:09;95561.94;;;11.95;66.75
15007;BME280;7599;50.748;13.142;2023-04-02T08:23:15;95561.94;;;11.95;66.76
15007;BME280;7599;50.748;13.142;2023-04-02T08:26:18;95574.53;;;11.93;66.61
15007;BME280;7599;50.748;13.142;2023-04-02T08:29:21;95575.09;;;11.95;66.58
15007;BME280;7599;50.748;13.142;2023-04-02T08:32:25;95577.19;;;11.93;66.69
15007;BME280;7599;50.748;13.142;2023-04-02T08:35:29;95585.88;;;11.93;66.74
15007;BME280;7599;50.748;13.142;2023-04-02T08:38:32;95591.97;;;11.94;67.02
15007;BME280;7599;50.748;13.142;2023-04-02T08:41:37;95599.06;;;11.93;66.86
15007;BME280;7599;50.748;13.142;2023-04-02T08:44:50;95604.34;;;11.93;66.88
15007;BME280;7599;50.748;13.142;2023-04-02T08:47:58;95610.41;;;11.94;66.73
15007;BME280;7599;50.748;13.142;2023-04-02T08:51:04;95614.88;;;11.93;66.75
15007;BME280;7599;50.748;13.142;2023-04-02T08:54:14;95617.53;;;11.93;66.98
15007;BME280;7599;50.748;13.142;2023-04-02T08:57:26;95622.00;;;11.93;67.09
15007;BME280;7599;50.748;13.142;2023-04-02T09:00:35;95625.44;;;11.93;66.84
15007;BME280;7599;50.748;13.142;2023-04-02T09:03:43;95633.34;;;11.93;67.02
15007;BME280;7599;50.748;13.142;2023-04-02T09:06:48;95632.53;;;11.93;67.05
15007;BME280;7599;50.748;13.142;2023-04-02T09:09:52;95633.34;;;11.93;67.00
15007;BME280;7599;50.748;13.142;2023-04-02T09:12:55;95643.66;;;11.95;66.94
15007;BME280;7599;50.748;13.142;2023-04-02T09:16:02;95641.00;;;11.95;66.87
15007;BME280;7599;50.748;13.142;2023-04-02T09:19:15;95654.19;;;11.95;66.77
15007;BME280;7599;50.748;13.142;2023-04-02T09:22:19;95658.66;;;11.94;66.59
15007;BME280;7599;50.748;13.142;2023-04-02T09:25:25;95670.56;;;11.97;67.02
15007;BME280;7599;50.748;13.142;2023-04-02T09:28:28;95678.47;;;11.97;66.77
15007;BME280;7599;50.748;13.142;2023-04-02T09:31:35;95685.09;;;11.99;66.88
15007;BME280;7599;50.748;13.142;2023-04-02T09:34:41;95678.78;;;12.00;66.41
15007;BME280;7599;50.748;13.142;2023-04-02T09:37:44;95683.25;;;12.00;66.29
15007;BME280;7599;50.748;13.142;2023-04-02T09:40:49;95691.19;;;12.00;66.37
15007;BME280;7599;50.748;13.142;2023-04-02T09:44:12;95693.81;;;12.00;66.29
15007;BME280;7599;50.748;13.142;2023-04-02T09:47:23;95703.56;;;11.99;66.17
15007;BME280;7599;50.748;13.142;2023-04-02T09:50:31;95717.78;;;11.98;66.12
15007;BME280;7599;50.748;13.142;2023-04-02T09:53:36;95717.78;;;11.98;66.18
15007;BME280;7599;50.748;13.142;2023-04-02T09:56:58;95718.56;;;11.99;66.28
15007;BME280;7599;50.748;13.142;2023-04-02T10:00:08;95732.31;;;12.01;66.12
15007;BME280;7599;50.748;13.142;2023-04-02T10:03:30;95728.56;;;11.97;66.25
15007;BME280;7599;50.748;13.142;2023-04-02T10:06:36;95741.72;;;11.97;66.19
15007;BME280;7599;50.748;13.142;2023-04-02T10:09:38;95747.00;;;11.97;66.22
15007;BME280;7599;50.748;13.142;2023-04-02T10:12:43;95754.91;;;11.97;66.38
15007;BME280;7599;50.748;13.142;2023-04-02T10:15:50;95760.19;;;11.97;66.39
15007;BME280;7599;50.748;13.142;2023-04-02T10:18:56;95771.78;;;11.96;66.58
15007;BME280;7599;50.748;13.142;2023-04-02T10:22:04;95776.00;;;11.97;66.40
15007;BME280;7599;50.748;13.142;2023-04-02T10:25:12;95780.72;;;11.95;66.41
15007;BME280;7599;50.748;13.142;2023-04-02T10:28:38;95789.19;;;11.97;66.40
15007;BME280;7599;50.748;13.142;2023-04-02T10:31:51;95792.09;;;11.95;66.39
15007;BME280;7599;50.748;13.142;2023-04-02T10:35:00;95799.72;;;11.97;66.46
15007;BME280;7599;50.748;13.142;2023-04-02T10:38:23;95810.28;;;11.97;66.19
15007;BME280;7599;50.748;13.142;2023-04-02T10:41:31;95814.50;;;11.98;66.34
15007;BME280;7599;50.748;13.142;2023-04-02T10:44:45;95818.19;;;11.97;66.35
15007;BME280;7599;50.748;13.142;2023-04-02T10:47:55;95817.38;;;11.96;66.28
15007;BME280;7599;50.748;13.142;2023-04-02T10:51:08;95815.53;;;11.97;66.39
15007;BME280;7599;50.748;13.142;2023-04-02T10:54:59;95822.91;;;11.95;66.45
15007;BME280;7599;50.748;13.142;2023-04-02T11:03:11;95840.34;;;11.96;66.27
15007;BME280;7599;50.748;13.142;2023-04-02T11:06:43;95850.09;;;11.95;66.24
15007;BME280;7599;50.748;13.142;2023-04-02T11:10:20;95858.78;;;11.96;65.95
15007;BME280;7599;50.748;13.142;2023-04-02T11:14:34;95860.38;;;11.97;66.16
15007;BME280;7599;50.748;13.142;2023-04-02T11:28:43;95885.38;;;11.94;66.04
15007;BME280;7599;50.748;13.142;2023-04-02T11:32:27;95879.31;;;11.94;65.71
15007;BME280;7599;50.748;13.142;2023-04-02T11:35:59;95892.25;;;11.95;66.22
15007;BME280;7599;50.748;13.142;2023-04-02T11:39:49;95902.53;;;11.97;65.81
15007;BME280;7599;50.748;13.142;2023-04-02T11:42:54;95898.06;;;11.97;65.78
15007;BME280;7599;50.748;13.142;2023-04-02T11:45:59;95906.78;;;11.98;65.63
15007;BME280;7599;50.748;13.142;2023-04-02T11:49:36;95916.53;;;11.97;65.61
15007;BME280;7599;50.748;13.142;2023-04-02T11:52:51;95915.50;;;11.98;65.46
15007;BME280;7599;50.748;13.142;2023-04-02T11:56:14;95913.66;;;11.99;65.73
15007;BME280;7599;50.748;13.142;2023-04-02T11:59:23;95918.94;;;11.99;65.84
15007;BME280;7599;50.748;13.142;2023-04-02T12:02:34;95917.91;;;12.00;65.35
15007;BME280;7599;50.748;13.142;2023-04-02T12:05:48;95922.38;;;11.99;65.69
15007;BME280;7599;50.748;13.142;2023-04-02T12:09:02;95926.84;;;11.99;65.70
15007;BME280;7599;50.748;13.142;2023-04-02T12:12:16;95931.09;;;12.00;65.63
15007;BME280;7599;50.748;13.142;2023-04-02T12:15:40;95926.84;;;11.99;65.42
15007;BME280;7599;50.748;13.142;2023-04-02T12:18:49;95937.97;;;12.01;65.78
15007;BME280;7599;50.748;13.142;2023-04-02T12:21:54;95933.97;;;11.98;65.45
15007;BME280;7599;50.748;13.142;2023-04-02T12:25:03;95946.09;;;11.99;65.35
15007;BME280;7599;50.748;13.142;2023-04-02T12:28:14;95956.66;;;11.99;65.51
15007;BME280;7599;50.748;13.142;2023-04-02T12:31:23;95948.75;;;11.99;65.53
15007;BME280;7599;50.748;13.142;2023-04-02T12:34:28;95959.28;;;11.99;65.59
15007;BME280;7599;50.748;13.142;2023-04-02T12:37:31;95962.72;;;12.00;65.33
15007;BME280;7599;50.748;13.142;2023-04-02T12:40:34;95965.38;;;12.00;65.38
15007;BME280;7599;50.748;13.142;2023-04-02T12:43:37;95967.19;;;11.99;65.63
15007;BME280;7599;50.748;13.142;2023-04-02T12:47:10;95967.19;;;11.99;65.31
15007;BME280;7599;50.748;13.142;2023-04-02T12:51:02;95975.34;;;11.98;65.51
15007;BME280;7599;50.748;13.142;2023-04-02T12:54:43;95974.31;;;11.99;65.42
15007;BME280;7599;50.748;13.142;2023-04-02T12:58:24;95980.63;;;11.98;65.73
15007;BME280;7599;50.748;13.142;2023-04-02T13:01:29;95991.16;;;11.98;65.68
15007;BME280;7599;50.748;13.142;2023-04-02T13:04:45;95975.34;;;11.98;65.57
15007;BME280;7599;50.748;13.142;2023-04-02T13:07:52;95986.69;;;11.98;65.78
15007;BME280;7599;50.748;13.142;2023-04-02T13:10:58;95988.53;;;11.98;65.40
15007;BME280;7599;50.748;13.142;2023-04-02T13:14:02;96002.50;;;11.98;65.66
15007;BME280;7599;50.748;13.142;2023-04-02T13:17:37;96000.44;;;12.00;65.28
15007;BME280;7599;50.748;13.142;2023-04-02T13:20:41;96007.34;;;12.02;65.15
15007;BME280;7599;50.748;13.142;2023-04-02T13:23:45;96008.59;;;11.99;65.43
15007;BME280;7599;50.748;13.142;2023-04-02T13:26:48;96009.38;;;11.99;65.23
15007;BME280;7599;50.748;13.142;2023-04-02T13:29:51;96020.75;;;12.00;65.50
15007;BME280;7599;50.748;13.142;2023-04-02T13:32:54;96022.56;;;11.99;65.13
15007;BME280;7599;50.748;13.142;2023-04-02T13:35:57;96023.38;;;12.00;65.58
15007;BME280;7599;50.748;13.142;2023-04-02T13:39:01;96022.34;;;12.01;65.33
15007;BME280;7599;50.748;13.142;2023-04-02T13:42:04;96024.19;;;12.00;65.15
15007;BME280;7599;50.748;13.142;2023-04-02T13:45:18;96027.63;;;12.01;65.51
15007;BME280;7599;50.748;13.142;2023-04-02T13:48:23;96026.00;;;12.00;65.37
15007;BME280;7599;50.748;13.142;2023-04-02T13:51:34;96026.81;;;12.00;65.65
15007;BME280;7599;50.748;13.142;2023-04-02T13:54:42;96031.28;;;12.00;65.39
15007;BME280;7599;50.748;13.142;2023-04-02T13:57:47;96036.56;;;12.00;65.54
15007;BME280;7599;50.748;13.142;2023-04-02T14:00:52;96033.91;;;12.00;65.32
15007;BME280;7599;50.748;13.142;2023-04-02T14:03:55;96036.56;;;12.00;65.37
15007;BME280;7599;50.748;13.142;2023-04-02T14:07:27;96036.56;;;12.00;65.40
15007;BME280;7599;50.748;13.142;2023-04-02T14:10:52;96046.06;;;12.01;65.45
15007;BME280;7599;50.748;13.142;2023-04-02T14:14:14;96044.47;;;12.00;65.42
15007;BME280;7599;50.748;13.142;2023-04-02T14:17:27;96044.25;;;12.02;65.04
15007;BME280;7599;50.748;13.142;2023-04-02T14:20:41;96051.13;;;12.03;65.16
15007;BME280;7599;50.748;13.142;2023-04-02T14:24:00;96051.72;;;12.05;65.36
15007;BME280;7599;50.748;13.142;2023-04-02T14:27:18;96058.81;;;12.04;65.00
15007;BME280;7599;50.748;13.142;2023-04-02T14:30:30;96061.44;;;12.04;65.24
15007;BME280;7599;50.748;13.142;2023-04-02T14:33:41;96057.19;;;12.03;65.19
15007;BME280;7599;50.748;13.142;2023-04-02T14:36:55;96065.91;;;12.04;65.01
15007;BME280;7599;50.748;13.142;2023-04-02T14:40:09;96069.59;;;12.03;65.49
15007;BME280;7599;50.748;13.142;2023-04-02T14:43:19;96073.25;;;12.02;65.35
15007;BME280;7599;50.748;13.142;2023-04-02T14:46:24;96075.88;;;12.02;65.29
15007;BME280;7599;50.748;13.142;2023-04-02T14:49:30;96075.09;;;12.01;65.64
15007;BME280;7599;50.748;13.142;2023-04-02T14:52:36;96070.84;;;12.00;65.66
15007;BME280;7599;50.748;13.142;2023-04-02T14:55:42;96076.91;;;12.00;65.59
15007;BME280;7599;50.748;13.142;2023-04-02T14:58:53;96081.38;;;12.00;65.61
15007;BME280;7599;50.748;13.142;2023-04-02T15:02:00;96076.91;;;12.00;65.68
15007;BME280;7599;50.748;13.142;2023-04-02T15:05:12;96078.75;;;12.00;65.61
15007;BME280;7599;50.748;13.142;2023-04-02T15:08:19;96080.56;;;11.99;65.59
15007;BME280;7599;50.748;13.142;2023-04-02T15:11:26;96090.09;;;12.00;65.81
15007;BME280;7599;50.748;13.142;2023-04-02T15:14:34;96089.28;;;12.00;65.67
15007;BME280;7599;50.748;13.142;2023-04-02T15:17:38;96098.81;;;12.01;65.72
15007;BME280;7599;50.748;13.142;2023-04-02T15:20:48;96097.19;;;12.00;65.55
15007;BME280;7599;50.748;13.142;2023-04-02T15:23:57;96101.66;;;11.99;65.81
15007;BME280;7599;50.748;13.142;2023-04-02T15:27:13;96105.91;;;12.00;65.38
15007;BME280;7599;50.748;13.142;2023-04-02T15:30:28;96116.69;;;11.99;65.72
15007;BME280;7599;50.748;13.142;2023-04-02T15:33:43;96115.66;;;12.00;65.84
15007;BME280;7599;50.748;13.142;2023-04-02T15:36:54;96116.69;;;11.99;65.80
15007;BME280;7599;50.748;13.142;2023-04-02T15:40:13;96118.06;;;12.02;66.24
15007;BME280;7599;50.748;13.142;2023-04-02T15:43:33;96125.19;;;12.01;66.10
15007;BME280;7599;50.748;13.142;2023-04-02T15:46:48;96128.84;;;12.00;66.18
15007;BME280;7599;50.748;13.142;2023-04-02T15:49:57;96130.91;;;11.98;66.29
15007;BME280;7599;50.748;13.142;2023-04-02T15:53:08;96132.72;;;11.97;65.98
15007;BME280;7599;50.748;13.142;2023-04-02T15:56:21;96139.63;;;11.98;66.38
15007;BME280;7599;50.748;13.142;2023-04-02T15:59:50;96144.06;;;11.98;66.11
15007;BME280;7599;50.748;13.142;2023-04-02T16:03:28;96142.25;;;11.98;66.04
15007;BME280;7599;50.748;13.142;2023-04-02T16:06:40;96143.28;;;11.97;65.77
15007;BME280;7599;50.748;13.142;2023-04-02T16:09:54;96145.91;;;11.97;66.11
15007;BME280;7599;50.748;13.142;2023-04-02T16:13:09;96159.09;;;11.97;66.35
15007;BME280;7599;50.748;13.142;2023-04-02T16:16:14;96158.28;;;11.97;65.96
15007;BME280;7599;50.748;13.142;2023-04-02T16:19:26;96165.16;;;11.98;66.04
15007;BME280;7599;50.748;13.142;2023-04-02T16:22:30;96171.47;;;11.97;65.96
15007;BME280;7599;50.748;13.142;2023-04-02T16:25:40;96177.81;;;11.96;66.00
15007;BME280;7599;50.748;13.142;2023-04-02T16:28:54;96178.81;;;11.95;66.11
15007;BME280;7599;50.748;13.142;2023-04-02T16:32:06;96187.28;;;11.97;66.28
15007;BME280;7599;50.748;13.142;2023-04-02T16:35:22;96193.03;;;11.94;66.21
15007;BME280;7599;50.748;13.142;2023-04-02T16:38:41;96190.41;;;11.94;66.49
15007;BME280;7599;50.748;13.142;2023-04-02T16:41:52;96202.56;;;11.95;66.23
15007;BME280;7599;50.748;13.142;2023-04-02T16:45:06;96204.59;;;11.93;66.48
15007;BME280;7599;50.748;13.142;2023-04-02T16:48:17;96200.94;;;11.94;66.19
15007;BME280;7599;50.748;13.142;2023-04-02T16:51:31;96211.50;;;11.94;66.30
15007;BME280;7599;50.748;13.142;2023-04-02T16:54:43;96200.13;;;11.93;66.34
15007;BME280;7599;50.748;13.142;2023-04-02T16:57:51;96214.13;;;11.94;66.49
15007;BME280;7599;50.748;13.142;2023-04-02T17:00:59;96226.50;;;11.93;66.54
15007;BME280;7599;50.748;13.142;2023-04-02T17:04:24;96224.66;;;11.94;66.53